sensor_id;sensor_type;location;lat;lon;timestamp;P1;durP1;ratioP1;P2;durP2;ratioP2
2892;SDS011;1456;51.840;12.184;2022-09-20T00:00:39;0.70;;;0.70;;
2892;SDS011;1456;51.840;12.184;2022-09-20T00:03:06;7.60;;;1.33;;
2892;SDS011;1456;51.840;12.184;2022-09-20T00:05:33;0.60;;;0.60;;
2892;SDS011;1456;51.840;12.184;2022-09-20T00:08:02;0.40;;;0.40;;
2892;SDS011;1456;51.840;12.184;2022-09-20T00:10:30;0.90;;;0.90;;
2892;SDS011;1456;51.840;12.184;2022-09-20T00:13:06;0.90;;;0.67;;
2892;SDS011;1456;51.840;12.184;2022-09-20T00:15:38;0.50;;;0.50;;
2892;SDS011;1456;51.840;12.184;2022-09-20T00:18:08;0.40;;;0.40;;
2892;SDS011;1456;51.840;12.184;2022-09-20T00:20:35;1.00;;;0.90;;
2892;SDS011;1456;51.840;12.184;2022-09-20T00:23:08;0.50;;;0.40;;
2892;SDS011;1456;51.840;12.184;2022-09-20T00:25:33;0.90;;;0.80;;
2892;SDS011;1456;51.840;12.184;2022-09-20T00:28:00;0.40;;;0.40;;
2892;SDS011;1456;51.840;12.184;2022-09-20T00:30:26;0.47;;;0.47;;
2892;SDS011;1456;51.840;12.184;2022-09-20T00:32:51;0.70;;;0.70;;
2892;SDS011;1456;51.840;12.184;2022-09-20T00:35:24;4.13;;;1.07;;
2892;SDS011;1456;51.840;12.184;2022-09-20T00:37:51;0.30;;;0.30;;
2892;SDS011;1456;51.840;12.184;2022-09-20T00:40:19;0.53;;;0.53;;
2892;SDS011;1456;51.840;12.184;2022-09-20T00:42:46;0.77;;;0.77;;
2892;SDS011;1456;51.840;12.184;2022-09-20T00:47:53;0.40;;;0.40;;
2892;SDS011;1456;51.840;12.184;2022-09-20T00:52:57;4.40;;;0.53;;
2892;SDS011;1456;51.840;12.184;2022-09-20T00:55:26;0.30;;;0.30;;
2892;SDS011;1456;51.840;12.184;2022-09-20T00:57:52;0.40;;;0.40;;
2892;SDS011;1456;51.840;12.184;2022-09-20T01:00:19;0.30;;;0.30;;
2892;SDS011;1456;51.840;12.184;2022-09-20T01:02:47;0.63;;;0.40;;
2892;SDS011;1456;51.840;12.184;2022-09-20T01:05:16;0.40;;;0.40;;
2892;SDS011;1456;51.840;12.184;2022-09-20T01:07:43;1.03;;;1.03;;
2892;SDS011;1456;51.840;12.184;2022-09-20T01:10:11;0.47;;;0.47;;
2892;SDS011;1456;51.840;12.184;2022-09-20T01:12:37;1.00;;;1.00;;
2892;SDS011;1456;51.840;12.184;2022-09-20T01:15:05;0.40;;;0.40;;
2892;SDS011;1456;51.840;12.184;2022-09-20T01:17:36;0.70;;;0.70;;
2892;SDS011;1456;51.840;12.184;2022-09-20T01:25:34;0.40;;;0.40;;
2892;SDS011;1456;51.840;12.184;2022-09-20T01:28:14;0.40;;;0.40;;
2892;SDS011;1456;51.840;12.184;2022-09-20T01:33:51;1.57;;;1.47;;
2892;SDS011;1456;51.840;12.184;2022-09-20T01:36:22;1.23;;;1.23;;
2892;SDS011;1456;51.840;12.184;2022-09-20T01:39:06;1.40;;;1.30;;
2892;SDS011;1456;51.840;12.184;2022-09-20T01:42:01;13.93;;;1.07;;
2892;SDS011;1456;51.840;12.184;2022-09-20T01:47:26;0.77;;;0.70;;
2892;SDS011;1456;51.840;12.184;2022-09-20T01:53:03;0.90;;;0.73;;
2892;SDS011;1456;51.840;12.184;2022-09-20T02:01:23;0.40;;;0.40;;
2892;SDS011;1456;51.840;12.184;2022-09-20T02:04:39;0.37;;;0.30;;
2892;SDS011;1456;51.840;12.184;2022-09-20T02:13:40;0.70;;;0.70;;
2892;SDS011;1456;51.840;12.184;2022-09-20T02:16:10;0.50;;;0.50;;
2892;SDS011;1456;51.840;12.184;2022-09-20T02:40:49;0.47;;;0.47;;
2892;SDS011;1456;51.840;12.184;2022-09-20T02:52:14;0.60;;;0.60;;
2892;SDS011;1456;51.840;12.184;2022-09-20T02:58:08;0.57;;;0.57;;
2892;SDS011;1456;51.840;12.184;2022-09-20T03:09:22;0.43;;;0.43;;
2892;SDS011;1456;51.840;12.184;2022-09-20T03:14:56;0.90;;;0.70;;
2892;SDS011;1456;51.840;12.184;2022-09-20T03:17:43;0.30;;;0.30;;
2892;SDS011;1456;51.840;12.184;2022-09-20T03:25:56;0.50;;;0.50;;
2892;SDS011;1456;51.840;12.184;2022-09-20T03:28:42;1.03;;;1.03;;
2892;SDS011;1456;51.840;12.184;2022-09-20T03:34:35;0.57;;;0.57;;
2892;SDS011;1456;51.840;12.184;2022-09-20T03:42:35;1.03;;;0.73;;
2892;SDS011;1456;51.840;12.184;2022-09-20T03:50:44;1.83;;;1.73;;
2892;SDS011;1456;51.840;12.184;2022-09-20T03:56:13;1.10;;;1.03;;
2892;SDS011;1456;51.840;12.184;2022-09-20T04:01:54;0.30;;;0.30;;
2892;SDS011;1456;51.840;12.184;2022-09-20T04:07:11;0.57;;;0.57;;
2892;SDS011;1456;51.840;12.184;2022-09-20T04:09:48;0.60;;;0.60;;
2892;SDS011;1456;51.840;12.184;2022-09-20T04:26:34;0.50;;;0.50;;
2892;SDS011;1456;51.840;12.184;2022-09-20T04:29:24;0.30;;;0.30;;
2892;SDS011;1456;51.840;12.184;2022-09-20T04:32:24;1.13;;;1.03;;
2892;SDS011;1456;51.840;12.184;2022-09-20T04:34:57;0.60;;;0.60;;
2892;SDS011;1456;51.840;12.184;2022-09-20T04:38:02;0.30;;;0.30;;
2892;SDS011;1456;51.840;12.184;2022-09-20T04:40:43;4.57;;;1.60;;
2892;SDS011;1456;51.840;12.184;2022-09-20T04:49:24;0.50;;;0.50;;
2892;SDS011;1456;51.840;12.184;2022-09-20T05:23:20;0.63;;;0.63;;
2892;SDS011;1456;51.840;12.184;2022-09-20T05:26:21;0.50;;;0.50;;
2892;SDS011;1456;51.840;12.184;2022-09-20T05:29:03;0.63;;;0.63;;
2892;SDS011;1456;51.840;12.184;2022-09-20T05:34:17;2.00;;;1.90;;
2892;SDS011;1456;51.840;12.184;2022-09-20T05:36:58;0.73;;;0.73;;
2892;SDS011;1456;51.840;12.184;2022-09-20T05:42:18;1.20;;;1.20;;
2892;SDS011;1456;51.840;12.184;2022-09-20T05:47:54;0.53;;;0.53;;
2892;SDS011;1456;51.840;12.184;2022-09-20T06:01:57;0.40;;;0.40;;
2892;SDS011;1456;51.840;12.184;2022-09-20T06:04:36;0.40;;;0.40;;
2892;SDS011;1456;51.840;12.184;2022-09-20T06:07:11;0.50;;;0.50;;
2892;SDS011;1456;51.840;12.184;2022-09-20T06:16:02;1.33;;;0.50;;
2892;SDS011;1456;51.840;12.184;2022-09-20T06:18:35;0.50;;;0.50;;
2892;SDS011;1456;51.840;12.184;2022-09-20T06:21:39;1.83;;;0.90;;
2892;SDS011;1456;51.840;12.184;2022-09-20T06:27:15;1.30;;;1.03;;
2892;SDS011;1456;51.840;12.184;2022-09-20T06:29:52;0.53;;;0.53;;
2892;SDS011;1456;51.840;12.184;2022-09-20T06:32:22;0.57;;;0.57;;
2892;SDS011;1456;51.840;12.184;2022-09-20T06:34:48;4.33;;;1.40;;
2892;SDS011;1456;51.840;12.184;2022-09-20T06:40:09;0.73;;;0.73;;
2892;SDS011;1456;51.840;12.184;2022-09-20T06:43:12;3.23;;;0.80;;
2892;SDS011;1456;51.840;12.184;2022-09-20T06:45:39;0.53;;;0.53;;
2892;SDS011;1456;51.840;12.184;2022-09-20T06:48:05;0.40;;;0.37;;
2892;SDS011;1456;51.840;12.184;2022-09-20T06:50:34;1.03;;;1.03;;
2892;SDS011;1456;51.840;12.184;2022-09-20T06:53:01;0.70;;;0.70;;
2892;SDS011;1456;51.840;12.184;2022-09-20T06:55:28;3.37;;;2.30;;
2892;SDS011;1456;51.840;12.184;2022-09-20T06:57:56;1.53;;;1.43;;
2892;SDS011;1456;51.840;12.184;2022-09-20T07:00:22;1.13;;;0.80;;
2892;SDS011;1456;51.840;12.184;2022-09-20T07:02:47;1.33;;;1.27;;
2892;SDS011;1456;51.840;12.184;2022-09-20T07:05:13;0.80;;;0.80;;
2892;SDS011;1456;51.840;12.184;2022-09-20T07:07:46;1.90;;;1.80;;
2892;SDS011;1456;51.840;12.184;2022-09-20T07:10:12;0.60;;;0.60;;
2892;SDS011;1456;51.840;12.184;2022-09-20T07:12:39;0.40;;;0.40;;
2892;SDS011;1456;51.840;12.184;2022-09-20T07:15:05;0.63;;;0.63;;
2892;SDS011;1456;51.840;12.184;2022-09-20T07:17:32;2.80;;;1.53;;
2892;SDS011;1456;51.840;12.184;2022-09-20T07:19:58;0.40;;;0.30;;
2892;SDS011;1456;51.840;12.184;2022-09-20T07:22:24;1.13;;;1.13;;
2892;SDS011;1456;51.840;12.184;2022-09-20T07:24:50;0.83;;;0.83;;
2892;SDS011;1456;51.840;12.184;2022-09-20T07:27:16;0.63;;;0.63;;
2892;SDS011;1456;51.840;12.184;2022-09-20T07:29:43;0.60;;;0.60;;
2892;SDS011;1456;51.840;12.184;2022-09-20T07:32:10;0.40;;;0.40;;
2892;SDS011;1456;51.840;12.184;2022-09-20T07:34:36;0.93;;;0.93;;
2892;SDS011;1456;51.840;12.184;2022-09-20T07:37:01;1.23;;;1.23;;
2892;SDS011;1456;51.840;12.184;2022-09-20T07:39:27;0.40;;;0.30;;
2892;SDS011;1456;51.840;12.184;2022-09-20T07:41:53;3.60;;;1.57;;
2892;SDS011;1456;51.840;12.184;2022-09-20T07:44:19;0.40;;;0.30;;
2892;SDS011;1456;51.840;12.184;2022-09-20T07:46:53;0.53;;;0.53;;
2892;SDS011;1456;51.840;12.184;2022-09-20T07:49:21;1.83;;;0.80;;
2892;SDS011;1456;51.840;12.184;2022-09-20T07:51:49;1.33;;;1.23;;
2892;SDS011;1456;51.840;12.184;2022-09-20T07:54:15;0.30;;;0.30;;
2892;SDS011;1456;51.840;12.184;2022-09-20T07:56:41;2.33;;;1.23;;
2892;SDS011;1456;51.840;12.184;2022-09-20T07:59:07;0.63;;;0.43;;
2892;SDS011;1456;51.840;12.184;2022-09-20T08:01:34;0.93;;;0.73;;
2892;SDS011;1456;51.840;12.184;2022-09-20T08:04:03;0.60;;;0.60;;
2892;SDS011;1456;51.840;12.184;2022-09-20T08:06:41;3.03;;;0.93;;
2892;SDS011;1456;51.840;12.184;2022-09-20T08:09:08;0.53;;;0.53;;
2892;SDS011;1456;51.840;12.184;2022-09-20T08:11:35;2.00;;;1.43;;
2892;SDS011;1456;51.840;12.184;2022-09-20T08:14:01;0.50;;;0.43;;
2892;SDS011;1456;51.840;12.184;2022-09-20T08:18:57;0.70;;;0.60;;
2892;SDS011;1456;51.840;12.184;2022-09-20T08:21:25;0.67;;;0.67;;
2892;SDS011;1456;51.840;12.184;2022-09-20T08:24:02;0.30;;;0.30;;
2892;SDS011;1456;51.840;12.184;2022-09-20T08:26:31;0.70;;;0.70;;
2892;SDS011;1456;51.840;12.184;2022-09-20T08:28:59;0.80;;;0.80;;
2892;SDS011;1456;51.840;12.184;2022-09-20T08:31:28;1.33;;;1.23;;
2892;SDS011;1456;51.840;12.184;2022-09-20T08:33:58;0.40;;;0.40;;
2892;SDS011;1456;51.840;12.184;2022-09-20T08:36:29;0.80;;;0.80;;
2892;SDS011;1456;51.840;12.184;2022-09-20T08:38:57;4.63;;;1.37;;
2892;SDS011;1456;51.840;12.184;2022-09-20T08:46:31;0.60;;;0.60;;
2892;SDS011;1456;51.840;12.184;2022-09-20T08:48:59;0.60;;;0.60;;
2892;SDS011;1456;51.840;12.184;2022-09-20T08:51:31;1.03;;;0.50;;
2892;SDS011;1456;51.840;12.184;2022-09-20T08:54:04;1.23;;;1.00;;
2892;SDS011;1456;51.840;12.184;2022-09-20T08:56:33;0.60;;;0.60;;
2892;SDS011;1456;51.840;12.184;2022-09-20T08:59:03;0.60;;;0.60;;
2892;SDS011;1456;51.840;12.184;2022-09-20T09:01:31;1.70;;;0.70;;
2892;SDS011;1456;51.840;12.184;2022-09-20T09:04:20;0.70;;;0.70;;
2892;SDS011;1456;51.840;12.184;2022-09-20T09:06:48;1.00;;;0.90;;
2892;SDS011;1456;51.840;12.184;2022-09-20T09:09:20;0.50;;;0.50;;
2892;SDS011;1456;51.840;12.184;2022-09-20T09:11:49;1.00;;;0.90;;
2892;SDS011;1456;51.840;12.184;2022-09-20T09:22:24;1.63;;;1.53;;
2892;SDS011;1456;51.840;12.184;2022-09-20T09:28:00;0.90;;;0.83;;
2892;SDS011;1456;51.840;12.184;2022-09-20T09:30:31;0.93;;;0.93;;
2892;SDS011;1456;51.840;12.184;2022-09-20T09:36:04;0.90;;;0.90;;
2892;SDS011;1456;51.840;12.184;2022-09-20T09:38:36;0.90;;;0.90;;
2892;SDS011;1456;51.840;12.184;2022-09-20T09:41:04;1.30;;;1.30;;
2892;SDS011;1456;51.840;12.184;2022-09-20T09:43:59;0.93;;;0.93;;
2892;SDS011;1456;51.840;12.184;2022-09-20T09:46:29;1.57;;;1.47;;
2892;SDS011;1456;51.840;12.184;2022-09-20T09:49:17;2.23;;;2.10;;
2892;SDS011;1456;51.840;12.184;2022-09-20T09:52:01;1.10;;;1.10;;
2892;SDS011;1456;51.840;12.184;2022-09-20T09:54:31;1.27;;;1.20;;
2892;SDS011;1456;51.840;12.184;2022-09-20T09:59:56;2.00;;;1.90;;
2892;SDS011;1456;51.840;12.184;2022-09-20T10:06:03;2.20;;;2.20;;
2892;SDS011;1456;51.840;12.184;2022-09-20T10:08:53;1.93;;;1.93;;
2892;SDS011;1456;51.840;12.184;2022-09-20T10:28:06;2.90;;;2.90;;
2892;SDS011;1456;51.840;12.184;2022-09-20T10:44:26;5.57;;;5.57;;
2892;SDS011;1456;51.840;12.184;2022-09-20T10:52:27;6.93;;;6.83;;
2892;SDS011;1456;51.840;12.184;2022-09-20T10:55:18;6.23;;;6.23;;
2892;SDS011;1456;51.840;12.184;2022-09-20T11:06:54;8.10;;;8.00;;
2892;SDS011;1456;51.840;12.184;2022-09-20T11:09:32;6.03;;;5.93;;
2892;SDS011;1456;51.840;12.184;2022-09-20T11:17:53;7.70;;;7.60;;
2892;SDS011;1456;51.840;12.184;2022-09-20T11:20:46;5.53;;;5.47;;
2892;SDS011;1456;51.840;12.184;2022-09-20T11:23:50;8.10;;;8.00;;
2892;SDS011;1456;51.840;12.184;2022-09-20T11:29:25;7.83;;;7.73;;
2892;SDS011;1456;51.840;12.184;2022-09-20T11:32:06;8.90;;;8.80;;
2892;SDS011;1456;51.840;12.184;2022-09-20T11:34:50;5.73;;;5.73;;
2892;SDS011;1456;51.840;12.184;2022-09-20T11:37:19;8.63;;;8.53;;
2892;SDS011;1456;51.840;12.184;2022-09-20T11:39:50;8.93;;;8.83;;
2892;SDS011;1456;51.840;12.184;2022-09-20T11:42:28;10.97;;;10.77;;
2892;SDS011;1456;51.840;12.184;2022-09-20T11:44:56;7.60;;;7.50;;
2892;SDS011;1456;51.840;12.184;2022-09-20T11:53:22;11.00;;;10.80;;
2892;SDS011;1456;51.840;12.184;2022-09-20T11:56:04;10.60;;;10.50;;
2892;SDS011;1456;51.840;12.184;2022-09-20T12:01:13;10.63;;;10.53;;
2892;SDS011;1456;51.840;12.184;2022-09-20T12:03:51;13.00;;;12.80;;
2892;SDS011;1456;51.840;12.184;2022-09-20T12:08:58;13.40;;;13.20;;
2892;SDS011;1456;51.840;12.184;2022-09-20T12:11:35;15.60;;;15.30;;
2892;SDS011;1456;51.840;12.184;2022-09-20T12:14:06;9.10;;;9.00;;
2892;SDS011;1456;51.840;12.184;2022-09-20T12:16:47;13.60;;;13.40;;
2892;SDS011;1456;51.840;12.184;2022-09-20T12:24:25;15.50;;;15.20;;
2892;SDS011;1456;51.840;12.184;2022-09-20T12:30:14;9.83;;;9.63;;
2892;SDS011;1456;51.840;12.184;2022-09-20T12:32:44;16.17;;;15.87;;
2892;SDS011;1456;51.840;12.184;2022-09-20T12:41:03;17.20;;;16.90;;
2892;SDS011;1456;51.840;12.184;2022-09-20T12:43:32;10.10;;;10.00;;
2892;SDS011;1456;51.840;12.184;2022-09-20T12:46:01;17.27;;;16.93;;
2892;SDS011;1456;51.840;12.184;2022-09-20T12:48:29;17.57;;;17.17;;
2892;SDS011;1456;51.840;12.184;2022-09-20T12:51:16;17.00;;;16.70;;
2892;SDS011;1456;51.840;12.184;2022-09-20T12:54:08;13.20;;;12.80;;
2892;SDS011;1456;51.840;12.184;2022-09-20T12:56:37;18.30;;;17.90;;
2892;SDS011;1456;51.840;12.184;2022-09-20T12:59:05;17.73;;;17.33;;
2892;SDS011;1456;51.840;12.184;2022-09-20T13:01:46;11.53;;;11.33;;
2892;SDS011;1456;51.840;12.184;2022-09-20T13:07:36;16.60;;;16.20;;
2892;SDS011;1456;51.840;12.184;2022-09-20T13:10:28;16.77;;;16.37;;
2892;SDS011;1456;51.840;12.184;2022-09-20T13:12:59;10.20;;;10.10;;
2892;SDS011;1456;51.840;12.184;2022-09-20T13:15:27;16.47;;;16.17;;
2892;SDS011;1456;51.840;12.184;2022-09-20T13:17:53;16.00;;;15.70;;
2892;SDS011;1456;51.840;12.184;2022-09-20T13:20:24;13.13;;;12.93;;
2892;SDS011;1456;51.840;12.184;2022-09-20T13:22:58;10.40;;;10.20;;
2892;SDS011;1456;51.840;12.184;2022-09-20T13:25:27;15.40;;;15.10;;
2892;SDS011;1456;51.840;12.184;2022-09-20T13:28:14;16.70;;;16.20;;
2892;SDS011;1456;51.840;12.184;2022-09-20T13:30:50;10.80;;;10.60;;
2892;SDS011;1456;51.840;12.184;2022-09-20T13:33:45;16.87;;;16.47;;
2892;SDS011;1456;51.840;12.184;2022-09-20T13:36:11;16.67;;;16.27;;
2892;SDS011;1456;51.840;12.184;2022-09-20T13:38:38;17.30;;;16.90;;
2892;SDS011;1456;51.840;12.184;2022-09-20T13:41:05;12.20;;;12.00;;
2892;SDS011;1456;51.840;12.184;2022-09-20T13:43:36;12.00;;;11.60;;
2892;SDS011;1456;51.840;12.184;2022-09-20T13:46:11;17.17;;;16.77;;
2892;SDS011;1456;51.840;12.184;2022-09-20T13:48:38;17.30;;;16.90;;
2892;SDS011;1456;51.840;12.184;2022-09-20T13:51:13;13.60;;;13.20;;
2892;SDS011;1456;51.840;12.184;2022-09-20T13:53:47;18.00;;;17.60;;
2892;SDS011;1456;51.840;12.184;2022-09-20T13:56:23;18.60;;;18.10;;
2892;SDS011;1456;51.840;12.184;2022-09-20T13:58:52;17.80;;;17.40;;
2892;SDS011;1456;51.840;12.184;2022-09-20T14:03:48;17.87;;;17.47;;
2892;SDS011;1456;51.840;12.184;2022-09-20T14:06:14;17.17;;;16.77;;
2892;SDS011;1456;51.840;12.184;2022-09-20T14:08:41;16.80;;;16.40;;
2892;SDS011;1456;51.840;12.184;2022-09-20T14:11:18;12.43;;;12.23;;
2892;SDS011;1456;51.840;12.184;2022-09-20T14:14:08;17.10;;;16.70;;
2892;SDS011;1456;51.840;12.184;2022-09-20T14:16:33;16.70;;;16.30;;
2892;SDS011;1456;51.840;12.184;2022-09-20T14:19:03;13.23;;;13.03;;
2892;SDS011;1456;51.840;12.184;2022-09-20T14:21:32;11.40;;;11.20;;
2892;SDS011;1456;51.840;12.184;2022-09-20T14:24:04;17.03;;;16.63;;
2892;SDS011;1456;51.840;12.184;2022-09-20T14:29:49;12.00;;;11.80;;
2892;SDS011;1456;51.840;12.184;2022-09-20T14:34:45;17.47;;;17.07;;
2892;SDS011;1456;51.840;12.184;2022-09-20T14:37:25;12.40;;;12.10;;
2892;SDS011;1456;51.840;12.184;2022-09-20T14:39:55;11.80;;;11.60;;
2892;SDS011;1456;51.840;12.184;2022-09-20T14:42:29;17.40;;;16.90;;
2892;SDS011;1456;51.840;12.184;2022-09-20T14:45:01;17.10;;;16.70;;
2892;SDS011;1456;51.840;12.184;2022-09-20T14:48:28;12.47;;;12.17;;
2892;SDS011;1456;51.840;12.184;2022-09-20T14:50:29;18.20;;;17.70;;
2892;SDS011;1456;51.840;12.184;2022-09-20T14:55:53;16.57;;;16.17;;
2892;SDS011;1456;51.840;12.184;2022-09-20T14:58:19;11.90;;;11.70;;
2892;SDS011;1456;51.840;12.184;2022-09-20T15:00:49;17.37;;;16.97;;
2892;SDS011;1456;51.840;12.184;2022-09-20T15:03:35;16.10;;;15.70;;
2892;SDS011;1456;51.840;12.184;2022-09-20T15:06:03;10.70;;;10.50;;
2892;SDS011;1456;51.840;12.184;2022-09-20T15:08:39;15.10;;;14.80;;
2892;SDS011;1456;51.840;12.184;2022-09-20T15:11:05;14.80;;;14.50;;
2892;SDS011;1456;51.840;12.184;2022-09-20T15:13:31;15.37;;;15.07;;
2892;SDS011;1456;51.840;12.184;2022-09-20T15:15:58;10.70;;;10.50;;
2892;SDS011;1456;51.840;12.184;2022-09-20T15:18:27;14.80;;;14.50;;
2892;SDS011;1456;51.840;12.184;2022-09-20T15:21:04;14.10;;;13.80;;
2892;SDS011;1456;51.840;12.184;2022-09-20T15:23:30;9.37;;;9.27;;
2892;SDS011;1456;51.840;12.184;2022-09-20T15:25:56;9.67;;;9.57;;
2892;SDS011;1456;51.840;12.184;2022-09-20T15:28:22;14.30;;;14.00;;
2892;SDS011;1456;51.840;12.184;2022-09-20T15:30:49;14.87;;;14.57;;
2892;SDS011;1456;51.840;12.184;2022-09-20T15:33:15;9.87;;;9.63;;
2892;SDS011;1456;51.840;12.184;2022-09-20T15:35:42;9.30;;;9.20;;
2892;SDS011;1456;51.840;12.184;2022-09-20T15:38:09;13.47;;;13.27;;
2892;SDS011;1456;51.840;12.184;2022-09-20T15:40:45;13.50;;;13.30;;
2892;SDS011;1456;51.840;12.184;2022-09-20T15:43:13;13.70;;;13.50;;
2892;SDS011;1456;51.840;12.184;2022-09-20T15:45:49;8.40;;;8.30;;
2892;SDS011;1456;51.840;12.184;2022-09-20T15:48:21;13.47;;;13.27;;
2892;SDS011;1456;51.840;12.184;2022-09-20T15:53:34;9.10;;;9.00;;
2892;SDS011;1456;51.840;12.184;2022-09-20T15:56:03;9.07;;;8.97;;
2892;SDS011;1456;51.840;12.184;2022-09-20T15:58:37;13.60;;;13.40;;
2892;SDS011;1456;51.840;12.184;2022-09-20T16:01:07;13.47;;;13.27;;
2892;SDS011;1456;51.840;12.184;2022-09-20T16:03:34;9.60;;;9.50;;
2892;SDS011;1456;51.840;12.184;2022-09-20T16:06:02;9.83;;;9.73;;
2892;SDS011;1456;51.840;12.184;2022-09-20T16:08:30;11.90;;;11.80;;
2892;SDS011;1456;51.840;12.184;2022-09-20T16:10:59;14.50;;;14.20;;
2892;SDS011;1456;51.840;12.184;2022-09-20T16:13:26;9.23;;;9.13;;
2892;SDS011;1456;51.840;12.184;2022-09-20T16:15:53;14.97;;;14.77;;
2892;SDS011;1456;51.840;12.184;2022-09-20T16:18:23;9.37;;;9.17;;
2892;SDS011;1456;51.840;12.184;2022-09-20T16:21:11;9.47;;;9.37;;
2892;SDS011;1456;51.840;12.184;2022-09-20T16:23:39;9.13;;;9.03;;
2892;SDS011;1456;51.840;12.184;2022-09-20T16:26:07;8.10;;;8.00;;
2892;SDS011;1456;51.840;12.184;2022-09-20T16:28:37;7.37;;;7.27;;
2892;SDS011;1456;51.840;12.184;2022-09-20T16:31:31;7.10;;;7.00;;
2892;SDS011;1456;51.840;12.184;2022-09-20T16:36:32;6.97;;;6.87;;
2892;SDS011;1456;51.840;12.184;2022-09-20T16:38:58;6.50;;;6.50;;
2892;SDS011;1456;51.840;12.184;2022-09-20T16:41:25;6.30;;;6.30;;
2892;SDS011;1456;51.840;12.184;2022-09-20T16:43:52;6.70;;;6.60;;
2892;SDS011;1456;51.840;12.184;2022-09-20T16:46:20;5.70;;;5.70;;
2892;SDS011;1456;51.840;12.184;2022-09-20T16:48:49;6.33;;;6.23;;
2892;SDS011;1456;51.840;12.184;2022-09-20T16:51:24;7.73;;;7.53;;
2892;SDS011;1456;51.840;12.184;2022-09-20T16:53:59;7.00;;;6.80;;
2892;SDS011;1456;51.840;12.184;2022-09-20T16:56:34;6.83;;;6.63;;
2892;SDS011;1456;51.840;12.184;2022-09-20T16:59:01;5.97;;;5.77;;
2892;SDS011;1456;51.840;12.184;2022-09-20T17:01:29;4.70;;;4.70;;
2892;SDS011;1456;51.840;12.184;2022-09-20T17:03:56;5.13;;;5.13;;
2892;SDS011;1456;51.840;12.184;2022-09-20T17:06:22;5.53;;;5.47;;
2892;SDS011;1456;51.840;12.184;2022-09-20T17:08:52;5.00;;;5.00;;
2892;SDS011;1456;51.840;12.184;2022-09-20T17:11:19;5.57;;;5.37;;
2892;SDS011;1456;51.840;12.184;2022-09-20T17:13:49;4.60;;;4.60;;
2892;SDS011;1456;51.840;12.184;2022-09-20T17:16:17;3.67;;;3.67;;
2892;SDS011;1456;51.840;12.184;2022-09-20T17:18:45;3.30;;;3.30;;
2892;SDS011;1456;51.840;12.184;2022-09-20T17:21:17;3.60;;;3.60;;
2892;SDS011;1456;51.840;12.184;2022-09-20T17:23:44;5.33;;;5.00;;
2892;SDS011;1456;51.840;12.184;2022-09-20T17:26:15;4.20;;;4.20;;
2892;SDS011;1456;51.840;12.184;2022-09-20T17:28:44;4.30;;;4.20;;
2892;SDS011;1456;51.840;12.184;2022-09-20T17:31:12;4.10;;;4.10;;
2892;SDS011;1456;51.840;12.184;2022-09-20T17:33:40;4.10;;;4.10;;
2892;SDS011;1456;51.840;12.184;2022-09-20T17:36:08;3.30;;;3.30;;
2892;SDS011;1456;51.840;12.184;2022-09-20T17:38:39;2.60;;;2.60;;
2892;SDS011;1456;51.840;12.184;2022-09-20T17:41:17;2.53;;;2.53;;
2892;SDS011;1456;51.840;12.184;2022-09-20T17:43:44;2.70;;;2.70;;
2892;SDS011;1456;51.840;12.184;2022-09-20T17:48:40;1.60;;;1.60;;
2892;SDS011;1456;51.840;12.184;2022-09-20T17:51:13;1.67;;;1.67;;
2892;SDS011;1456;51.840;12.184;2022-09-20T17:53:41;1.50;;;1.50;;
2892;SDS011;1456;51.840;12.184;2022-09-20T17:56:09;1.27;;;1.27;;
2892;SDS011;1456;51.840;12.184;2022-09-20T17:58:36;1.40;;;1.40;;
2892;SDS011;1456;51.840;12.184;2022-09-20T18:01:03;1.50;;;1.50;;
2892;SDS011;1456;51.840;12.184;2022-09-20T18:03:34;1.33;;;1.33;;
2892;SDS011;1456;51.840;12.184;2022-09-20T18:06:16;1.20;;;1.20;;
2892;SDS011;1456;51.840;12.184;2022-09-20T18:08:45;1.30;;;1.30;;
2892;SDS011;1456;51.840;12.184;2022-09-20T18:11:12;1.93;;;1.83;;
2892;SDS011;1456;51.840;12.184;2022-09-20T18:13:38;0.90;;;0.90;;
2892;SDS011;1456;51.840;12.184;2022-09-20T18:16:10;1.33;;;1.33;;
2892;SDS011;1456;51.840;12.184;2022-09-20T18:18:41;0.97;;;0.97;;
2892;SDS011;1456;51.840;12.184;2022-09-20T18:21:29;3.90;;;2.80;;
2892;SDS011;1456;51.840;12.184;2022-09-20T18:23:55;1.30;;;1.30;;
2892;SDS011;1456;51.840;12.184;2022-09-20T18:31:30;3.57;;;3.40;;
2892;SDS011;1456;51.840;12.184;2022-09-20T18:34:01;3.57;;;3.47;;
2892;SDS011;1456;51.840;12.184;2022-09-20T18:36:31;4.40;;;4.30;;
2892;SDS011;1456;51.840;12.184;2022-09-20T18:38:58;2.60;;;2.50;;
2892;SDS011;1456;51.840;12.184;2022-09-20T18:41:25;1.50;;;1.40;;
2892;SDS011;1456;51.840;12.184;2022-09-20T18:43:58;3.80;;;3.60;;
2892;SDS011;1456;51.840;12.184;2022-09-20T18:46:27;3.17;;;2.80;;
2892;SDS011;1456;51.840;12.184;2022-09-20T18:48:57;2.97;;;2.80;;
2892;SDS011;1456;51.840;12.184;2022-09-20T18:51:26;2.40;;;2.20;;
2892;SDS011;1456;51.840;12.184;2022-09-20T18:53:55;1.23;;;1.23;;
2892;SDS011;1456;51.840;12.184;2022-09-20T18:56:25;1.97;;;1.87;;
2892;SDS011;1456;51.840;12.184;2022-09-20T18:58:59;1.33;;;1.33;;
2892;SDS011;1456;51.840;12.184;2022-09-20T19:01:38;3.47;;;3.27;;
2892;SDS011;1456;51.840;12.184;2022-09-20T19:09:55;0.60;;;0.60;;
2892;SDS011;1456;51.840;12.184;2022-09-20T19:21:05;0.40;;;0.40;;
2892;SDS011;1456;51.840;12.184;2022-09-20T19:26:25;3.40;;;1.80;;
2892;SDS011;1456;51.840;12.184;2022-09-20T19:28:55;0.40;;;0.40;;
2892;SDS011;1456;51.840;12.184;2022-09-20T19:31:25;1.27;;;1.27;;
2892;SDS011;1456;51.840;12.184;2022-09-20T19:33:54;0.60;;;0.60;;
2892;SDS011;1456;51.840;12.184;2022-09-20T19:36:24;0.83;;;0.83;;
2892;SDS011;1456;51.840;12.184;2022-09-20T19:39:12;9.47;;;2.43;;
2892;SDS011;1456;51.840;12.184;2022-09-20T19:44:38;11.40;;;2.83;;
2892;SDS011;1456;51.840;12.184;2022-09-20T19:49:51;1.50;;;1.30;;
2892;SDS011;1456;51.840;12.184;2022-09-20T19:52:26;1.03;;;1.03;;
2892;SDS011;1456;51.840;12.184;2022-09-20T19:54:52;3.50;;;0.97;;
2892;SDS011;1456;51.840;12.184;2022-09-20T19:57:29;0.60;;;0.60;;
2892;SDS011;1456;51.840;12.184;2022-09-20T20:00:06;0.57;;;0.57;;
2892;SDS011;1456;51.840;12.184;2022-09-20T20:02:38;0.40;;;0.40;;
2892;SDS011;1456;51.840;12.184;2022-09-20T20:05:04;0.90;;;0.70;;
2892;SDS011;1456;51.840;12.184;2022-09-20T20:10:23;0.40;;;0.40;;
2892;SDS011;1456;51.840;12.184;2022-09-20T20:16:11;0.30;;;0.30;;
2892;SDS011;1456;51.840;12.184;2022-09-20T20:21:18;1.20;;;1.10;;
2892;SDS011;1456;51.840;12.184;2022-09-20T20:24:04;1.00;;;1.00;;
2892;SDS011;1456;51.840;12.184;2022-09-20T20:26:34;0.30;;;0.30;;
2892;SDS011;1456;51.840;12.184;2022-09-20T20:29:01;0.40;;;0.40;;
2892;SDS011;1456;51.840;12.184;2022-09-20T20:31:26;1.53;;;1.43;;
2892;SDS011;1456;51.840;12.184;2022-09-20T20:33:53;0.70;;;0.70;;
2892;SDS011;1456;51.840;12.184;2022-09-20T20:36:19;0.50;;;0.50;;
2892;SDS011;1456;51.840;12.184;2022-09-20T20:38:47;0.43;;;0.43;;
2892;SDS011;1456;51.840;12.184;2022-09-20T20:41:17;0.40;;;0.40;;
2892;SDS011;1456;51.840;12.184;2022-09-20T20:43:46;0.43;;;0.43;;
2892;SDS011;1456;51.840;12.184;2022-09-20T20:46:17;0.40;;;0.40;;
2892;SDS011;1456;51.840;12.184;2022-09-20T20:48:44;0.30;;;0.30;;
2892;SDS011;1456;51.840;12.184;2022-09-20T20:51:15;0.57;;;0.57;;
2892;SDS011;1456;51.840;12.184;2022-09-20T20:53:43;0.40;;;0.40;;
2892;SDS011;1456;51.840;12.184;2022-09-20T20:56:14;0.77;;;0.77;;
2892;SDS011;1456;51.840;12.184;2022-09-20T20:58:45;0.50;;;0.50;;
2892;SDS011;1456;51.840;12.184;2022-09-20T21:01:18;0.43;;;0.43;;
2892;SDS011;1456;51.840;12.184;2022-09-20T21:03:54;0.30;;;0.30;;
2892;SDS011;1456;51.840;12.184;2022-09-20T21:06:23;0.60;;;0.60;;
2892;SDS011;1456;51.840;12.184;2022-09-20T21:08:54;0.40;;;0.40;;
2892;SDS011;1456;51.840;12.184;2022-09-20T21:11:27;0.60;;;0.50;;
2892;SDS011;1456;51.840;12.184;2022-09-20T21:13:56;0.50;;;0.50;;
2892;SDS011;1456;51.840;12.184;2022-09-20T21:19:00;0.43;;;0.43;;
2892;SDS011;1456;51.840;12.184;2022-09-20T21:21:27;0.47;;;0.47;;
2892;SDS011;1456;51.840;12.184;2022-09-20T21:23:56;0.70;;;0.40;;